Time;durP1;ratioP1;P1;durP2;ratioP2;P2;SDS_P1;SDS_P2;PMS_P1;PMS_P2;Temp;Humidity;BMP_temperature;BMP_pressure;BME280_temperature;BME280_humidity;BME280_pressure;Samples;Min_cycle;Max_cycle;Signal;HPM_P1;HPM_P2
2023/05/23 00:28:17;;;;;;;5.67;2.70;;;15.80;99.90;;;;;;5127600;23;20787;-88
2023/05/23 01:32:56;;;;;;;6.63;2.43;;;15.80;99.90;;;;;;5723170;23;20473;-93
2023/05/23 01:35:36;;;;;;;6.70;2.83;;;15.80;99.90;;;;;;4872574;29;20226;-90
2023/05/23 01:38:08;;;;;;;9.63;2.80;;;15.90;99.90;;;;;;4862020;29;20238;-92
2023/05/23 01:40:40;;;;;;;8.73;2.83;;;15.90;99.90;;;;;;4878968;29;20215;-91
2023/05/23 01:43:14;;;;;;;8.17;2.87;;;15.90;99.90;;;;;;4881382;29;20265;-92
2023/05/23 01:45:50;;;;;;;9.47;3.13;;;15.80;99.90;;;;;;4875933;29;20211;-92
2023/05/23 01:48:27;;;;;;;8.13;3.70;;;15.70;99.90;;;;;;4868283;29;20226;-91
2023/05/23 01:50:59;;;;;;;10.47;3.00;;;15.60;99.90;;;;;;4859315;29;20211;-93
2023/05/23 01:53:31;;;;;;;9.57;2.90;;;15.60;99.90;;;;;;4861213;29;20310;-91
2023/05/23 01:56:03;;;;;;;7.00;3.27;;;15.50;99.90;;;;;;4863696;29;20213;-93
2023/05/23 01:58:36;;;;;;;8.10;2.83;;;15.50;99.90;;;;;;4855896;29;20343;-92
2023/05/23 02:01:08;;;;;;;6.70;2.90;;;15.30;99.90;;;;;;4847817;29;20222;-89
2023/05/23 02:03:41;;;;;;;8.37;2.70;;;15.20;99.90;;;;;;4862159;29;20246;-91
2023/05/23 02:06:13;;;;;;;6.20;3.10;;;15.30;99.90;;;;;;4881060;29;20254;-94
2023/05/23 02:08:44;;;;;;;8.07;2.60;;;15.40;99.90;;;;;;5106350;23;20248;-92
2023/05/23 02:11:21;;;;;;;8.97;2.80;;;15.40;99.90;;;;;;4875885;29;20235;-96
2023/05/23 02:16:28;;;;;;;5.77;2.93;;;15.40;99.90;;;;;;5020147;23;20269;-96
2023/05/23 02:19:02;;;;;;;7.33;3.10;;;15.40;99.90;;;;;;4920358;29;20240;-94
2023/05/23 02:21:34;;;;;;;6.93;2.87;;;15.40;99.90;;;;;;4903340;29;20221;-96
2023/05/23 02:24:05;;;;;;;9.83;2.93;;;15.40;99.90;;;;;;4908127;29;20202;-96
2023/05/23 02:26:36;;;;;;;11.67;3.23;;;15.20;99.90;;;;;;4925185;29;20212;-96
2023/05/23 02:29:08;;;;;;;9.03;3.23;;;15.10;99.90;;;;;;4924983;29;20273;-96
2023/05/23 02:31:40;;;;;;;7.70;3.03;;;15.10;99.90;;;;;;4924391;29;20213;-96
2023/05/23 02:34:13;;;;;;;10.73;3.47;;;15.00;99.90;;;;;;4928587;29;20216;-96
2023/05/23 02:36:45;;;;;;;9.33;2.83;;;15.10;99.90;;;;;;4931711;29;20634;-96
2023/05/23 02:39:16;;;;;;;10.10;3.33;;;15.10;99.90;;;;;;4915569;29;20245;-97
2023/05/23 02:41:48;;;;;;;7.77;3.10;;;15.10;99.90;;;;;;4923462;29;20229;-96
2023/05/23 02:44:20;;;;;;;9.27;3.70;;;15.10;99.90;;;;;;4905094;29;20209;-96
2023/05/23 02:49:27;;;;;;;6.93;3.20;;;14.90;99.90;;;;;;4866931;29;20216;-96
2023/05/23 02:57:03;;;;;;;8.03;3.37;;;14.70;99.90;;;;;;5012607;23;20251;-96
2023/05/23 02:59:34;;;;;;;7.50;3.47;;;14.60;99.90;;;;;;4904050;29;20194;-96
2023/05/23 03:02:05;;;;;;;9.53;3.67;;;14.60;99.90;;;;;;4902331;29;20270;-96
2023/05/23 03:07:27;;;;;;;6.37;3.17;;;14.40;99.90;;;;;;4899537;29;20217;-96
2023/05/23 03:09:58;;;;;;;10.73;3.77;;;14.40;99.90;;;;;;4893915;29;20207;-96
2023/05/23 03:12:29;;;;;;;7.43;3.60;;;14.40;99.90;;;;;;4895453;29;20238;-96
2023/05/23 03:15:00;;;;;;;7.93;3.17;;;14.40;99.90;;;;;;4891869;29;20242;-96
2023/05/23 03:17:32;;;;;;;9.93;3.23;;;14.30;99.90;;;;;;4899547;29;20225;-96
2023/05/23 03:20:08;;;;;;;5.33;3.17;;;14.20;99.90;;;;;;4901734;29;20266;-96
2023/05/23 03:22:42;;;;;;;6.03;3.37;;;14.00;99.90;;;;;;4894170;29;20254;-96
2023/05/23 03:25:13;;;;;;;8.53;3.37;;;14.00;99.90;;;;;;4880512;29;20253;-96
2023/05/23 03:27:44;;;;;;;6.57;3.40;;;13.90;99.90;;;;;;4882212;29;20226;-96
2023/05/23 03:30:48;;;;;;;7.40;3.43;;;13.90;99.90;;;;;;4893598;29;20228;-95
2023/05/23 03:33:26;;;;;;;7.00;3.37;;;13.80;99.90;;;;;;4887449;29;20210;-95
2023/05/23 03:35:59;;;;;;;11.60;3.80;;;13.70;99.90;;;;;;4897150;29;20199;-96
2023/05/23 03:38:30;;;;;;;8.83;3.53;;;13.70;99.90;;;;;;4901911;29;20238;-96
2023/05/23 03:41:02;;;;;;;6.53;3.07;;;13.70;99.90;;;;;;4897807;29;20190;-96
2023/05/23 03:43:33;;;;;;;9.03;3.70;;;13.50;99.90;;;;;;4899997;29;20210;-96
2023/05/23 03:46:05;;;;;;;8.40;3.93;;;13.50;99.90;;;;;;4885441;29;20206;-96
2023/05/23 03:48:36;;;;;;;9.03;3.33;;;13.50;99.90;;;;;;4885161;29;20194;-96
2023/05/23 03:51:09;;;;;;;8.67;3.50;;;13.50;99.90;;;;;;4882704;29;20235;-96
2023/05/23 03:53:40;;;;;;;8.10;3.83;;;13.40;99.90;;;;;;4879681;29;20237;-96
2023/05/23 03:56:24;;;;;;;6.93;3.50;;;13.40;99.90;;;;;;4874721;29;20219;-96
2023/05/23 03:58:56;;;;;;;7.27;3.30;;;13.40;99.90;;;;;;4878655;29;20293;-96
2023/05/23 04:01:27;;;;;;;10.27;4.13;;;13.50;99.90;;;;;;4898240;29;20292;-95
2023/05/23 04:03:59;;;;;;;8.53;3.50;;;13.60;99.90;;;;;;4894371;29;20214;-96
2023/05/23 04:06:32;;;;;;;9.17;3.70;;;13.50;99.90;;;;;;4898102;29;20226;-95
2023/05/23 04:09:05;;;;;;;9.23;3.67;;;13.40;99.90;;;;;;4898477;29;20222;-96
2023/05/23 04:11:40;;;;;;;8.20;3.70;;;13.40;99.90;;;;;;4903372;29;20207;-96
2023/05/23 04:14:11;;;;;;;7.87;3.83;;;13.30;99.90;;;;;;4895522;29;20210;-96
2023/05/23 04:16:43;;;;;;;8.70;3.70;;;13.30;99.90;;;;;;4880812;29;20235;-96
2023/05/23 04:19:15;;;;;;;10.03;4.03;;;13.30;99.90;;;;;;4879570;29;20227;-96
2023/05/23 04:21:48;;;;;;;7.57;4.07;;;13.40;99.90;;;;;;4881402;29;20261;-96
2023/05/23 04:24:20;;;;;;;10.67;4.60;;;13.40;99.90;;;;;;4893735;29;20230;-96
2023/05/23 04:26:51;;;;;;;8.87;4.83;;;13.40;99.90;;;;;;4901384;29;20206;-96
2023/05/23 04:29:25;;;;;;;8.57;4.30;;;13.40;99.90;;;;;;4892433;29;20274;-96
2023/05/23 04:31:56;;;;;;;7.37;3.90;;;13.50;99.90;;;;;;4874611;29;20257;-96
2023/05/23 04:34:27;;;;;;;8.53;3.97;;;13.50;99.90;;;;;;4873376;29;20215;-96
2023/05/23 04:37:01;;;;;;;10.70;4.37;;;13.50;99.90;;;;;;4869657;29;20291;-96
2023/05/23 04:39:32;;;;;;;7.13;4.30;;;13.50;99.90;;;;;;4882397;29;20278;-96
2023/05/23 04:42:03;;;;;;;8.93;4.33;;;13.50;99.90;;;;;;4897625;29;20279;-96
2023/05/23 04:44:36;;;;;;;8.67;3.90;;;13.50;99.90;;;;;;4887203;29;20232;-94
2023/05/23 04:47:10;;;;;;;7.57;4.77;;;13.40;99.90;;;;;;4890072;29;20218;-95
2023/05/23 04:49:41;;;;;;;7.93;4.33;;;13.40;99.90;;;;;;4879751;29;20670;-94
2023/05/23 04:52:14;;;;;;;7.37;3.93;;;13.30;99.90;;;;;;4886588;29;20210;-96
2023/05/23 04:54:45;;;;;;;6.87;3.40;;;13.30;99.90;;;;;;4882090;29;20236;-96
2023/05/23 04:57:17;;;;;;;6.10;3.67;;;13.30;99.90;;;;;;4884903;29;20203;-96
2023/05/23 04:59:48;;;;;;;8.83;3.87;;;13.30;99.90;;;;;;4885545;29;20222;-96
2023/05/23 05:02:20;;;;;;;6.10;3.80;;;13.30;99.90;;;;;;4884484;29;20250;-96
2023/05/23 05:04:51;;;;;;;5.27;3.60;;;13.20;99.90;;;;;;4880010;29;20203;-96
2023/05/23 05:07:24;;;;;;;6.30;3.20;;;13.20;99.90;;;;;;4887223;29;20226;-96
2023/05/23 05:09:55;;;;;;;5.30;3.07;;;13.20;99.90;;;;;;4883961;29;20301;-96
2023/05/23 05:12:29;;;;;;;5.87;3.60;;;13.20;99.90;;;;;;4875438;29;20206;-96
2023/05/23 05:15:00;;;;;;;5.67;3.40;;;13.10;99.90;;;;;;4879219;29;20215;-96
2023/05/23 05:17:35;;;;;;;6.00;3.13;;;13.10;99.90;;;;;;4874991;29;20215;-96
2023/05/23 05:20:07;;;;;;;6.27;3.23;;;13.00;99.90;;;;;;4876205;29;20251;-96
2023/05/23 05:22:41;;;;;;;7.13;2.93;;;13.00;99.90;;;;;;4874983;29;20191;-96
2023/05/23 05:25:12;;;;;;;5.80;3.30;;;13.00;99.90;;;;;;4880165;29;20206;-96
2023/05/23 05:27:43;;;;;;;6.20;3.10;;;13.00;99.90;;;;;;4868104;29;20214;-96
2023/05/23 05:30:15;;;;;;;5.43;3.13;;;12.90;99.90;;;;;;4885822;29;20222;-96
2023/05/23 05:32:48;;;;;;;5.50;3.33;;;12.90;99.90;;;;;;4890664;29;20688;-96
2023/05/23 05:35:20;;;;;;;8.03;3.17;;;12.90;99.90;;;;;;4879221;29;20215;-96
2023/05/23 05:37:52;;;;;;;5.93;3.10;;;12.70;99.90;;;;;;4893555;29;20288;-96
2023/05/23 05:40:23;;;;;;;7.47;2.90;;;12.60;99.90;;;;;;4897368;29;20266;-96
2023/05/23 05:42:54;;;;;;;7.53;3.30;;;12.70;99.90;;;;;;4900238;29;20201;-96
2023/05/23 05:45:25;;;;;;;5.20;2.97;;;12.80;99.90;;;;;;4888940;29;20668;-96
2023/05/23 05:47:56;;;;;;;6.73;3.40;;;12.80;99.90;;;;;;4882371;29;20217;-96
2023/05/23 05:50:28;;;;;;;6.13;2.97;;;12.80;99.90;;;;;;4870106;29;20222;-96
2023/05/23 05:53:02;;;;;;;6.60;3.23;;;12.80;99.90;;;;;;4879583;29;20222;-96
2023/05/23 05:55:33;;;;;;;4.37;3.10;;;12.80;99.90;;;;;;4874047;29;20250;-96
2023/05/23 05:58:04;;;;;;;5.23;3.00;;;13.00;99.90;;;;;;4875972;29;20218;-95
2023/05/23 06:00:40;;;;;;;6.43;3.37;;;13.00;99.90;;;;;;4880241;29;20730;-96
2023/05/23 06:03:12;;;;;;;5.33;2.90;;;12.90;99.90;;;;;;4886408;29;20275;-94
2023/05/23 06:05:44;;;;;;;5.03;2.80;;;13.00;99.90;;;;;;4888671;29;20207;-95
2023/05/23 06:08:17;;;;;;;7.97;3.03;;;12.90;99.90;;;;;;4895179;29;20269;-96
2023/05/23 06:10:49;;;;;;;10.80;3.20;;;12.80;99.90;;;;;;4890299;29;20203;-96
2023/05/23 06:13:21;;;;;;;15.93;3.10;;;12.60;99.90;;;;;;4881522;29;20202;-96
2023/05/23 06:15:53;;;;;;;10.37;3.17;;;12.60;99.90;;;;;;4878786;29;20291;-96
2023/05/23 06:18:25;;;;;;;9.83;3.83;;;12.50;99.90;;;;;;4890871;29;20207;-95
2023/05/23 06:20:56;;;;;;;14.17;3.80;;;12.50;99.90;;;;;;4885825;29;20226;-96
2023/05/23 06:23:29;;;;;;;11.90;3.30;;;12.40;99.90;;;;;;4887151;29;20222;-96
2023/05/23 06:26:01;;;;;;;14.80;3.43;;;12.40;99.90;;;;;;4890912;29;20251;-96
2023/05/23 06:28:32;;;;;;;11.63;2.87;;;12.40;99.90;;;;;;4890986;29;20283;-96
2023/05/23 06:31:04;;;;;;;8.60;2.97;;;12.30;99.90;;;;;;4884191;29;20207;-96
2023/05/23 06:33:35;;;;;;;9.40;3.10;;;12.30;99.90;;;;;;4906010;29;20210;-96
2023/05/23 06:36:06;;;;;;;7.67;3.03;;;12.30;99.90;;;;;;4909655;29;20257;-96
2023/05/23 06:38:40;;;;;;;9.33;3.10;;;12.30;99.90;;;;;;4908776;29;20216;-96
2023/05/23 06:41:11;;;;;;;10.23;3.03;;;12.30;99.90;;;;;;4897682;29;20241;-96
2023/05/23 06:43:42;;;;;;;10.70;3.40;;;12.20;99.90;;;;;;4883519;29;20208;-96
2023/05/23 06:46:14;;;;;;;13.93;2.93;;;12.20;99.90;;;;;;4879171;29;20234;-96
2023/05/23 06:48:45;;;;;;;10.90;3.00;;;12.10;99.90;;;;;;4882052;29;20207;-96
2023/05/23 06:51:18;;;;;;;8.57;2.47;;;12.10;99.90;;;;;;4881722;29;20221;-96
2023/05/23 06:53:51;;;;;;;9.80;3.10;;;11.90;99.90;;;;;;4871116;29;20279;-96
2023/05/23 06:56:23;;;;;;;9.50;2.90;;;12.00;99.90;;;;;;4878375;29;20287;-96
2023/05/23 06:58:54;;;;;;;11.20;2.90;;;11.90;99.90;;;;;;4876070;29;20207;-96
2023/05/23 07:01:27;;;;;;;8.93;2.67;;;11.90;99.90;;;;;;4885765;29;20252;-96
2023/05/23 07:03:58;;;;;;;10.63;2.63;;;11.90;99.90;;;;;;4879675;29;20211;-96
2023/05/23 07:06:30;;;;;;;10.73;3.40;;;11.90;99.90;;;;;;4882396;29;20270;-96
2023/05/23 07:09:04;;;;;;;12.43;3.10;;;11.90;99.90;;;;;;4905832;29;20205;-96
2023/05/23 07:11:38;;;;;;;11.00;3.07;;;11.90;99.90;;;;;;4901244;29;20222;-96
2023/05/23 07:14:09;;;;;;;11.07;3.10;;;11.90;99.90;;;;;;4892718;29;20207;-96
2023/05/23 07:16:40;;;;;;;9.00;2.73;;;11.90;99.90;;;;;;4876203;29;20218;-96
2023/05/23 07:19:11;;;;;;;12.87;3.20;;;11.80;99.90;;;;;;4888339;29;20218;-96
2023/05/23 07:21:43;;;;;;;13.53;3.30;;;11.70;99.90;;;;;;4904337;29;20229;-95
2023/05/23 07:24:16;;;;;;;13.80;3.27;;;11.70;99.90;;;;;;4888527;29;20206;-95
2023/05/23 07:26:47;;;;;;;11.63;3.10;;;11.70;99.90;;;;;;4891838;29;20207;-96
2023/05/23 07:29:19;;;;;;;10.10;3.07;;;11.70;99.90;;;;;;4886357;29;20246;-96
2023/05/23 07:31:50;;;;;;;12.73;2.70;;;11.80;99.90;;;;;;4880329;29;20207;-96
2023/05/23 07:34:22;;;;;;;8.93;3.13;;;11.70;99.90;;;;;;4888681;29;20235;-96
2023/05/23 07:36:53;;;;;;;7.27;2.63;;;11.70;99.90;;;;;;4881505;29;20266;-96
2023/05/23 07:39:26;;;;;;;11.67;3.13;;;11.70;99.90;;;;;;4879596;29;20211;-96
2023/05/23 07:41:58;;;;;;;11.07;3.00;;;11.70;99.90;;;;;;4881726;29;20222;-96
2023/05/23 07:44:29;;;;;;;16.27;3.30;;;11.70;99.90;;;;;;4876514;29;20215;-96
2023/05/23 07:47:01;;;;;;;10.30;2.90;;;11.70;99.90;;;;;;4883136;29;20213;-96
2023/05/23 07:49:33;;;;;;;14.27;3.50;;;11.70;99.90;;;;;;4876637;29;20251;-96
2023/05/23 07:52:05;;;;;;;10.80;2.73;;;11.70;99.90;;;;;;4870811;29;20211;-96
2023/05/23 07:54:39;;;;;;;8.53;2.70;;;11.60;99.90;;;;;;4916656;29;20257;-96
2023/05/23 07:57:10;;;;;;;11.57;3.30;;;11.50;99.90;;;;;;4914907;29;20286;-96
2023/05/23 07:59:41;;;;;;;12.23;3.13;;;11.50;99.90;;;;;;4878961;29;20282;-96
2023/05/23 08:02:12;;;;;;;6.10;2.70;;;11.50;99.90;;;;;;4893055;29;20215;-96
2023/05/23 08:04:44;;;;;;;9.03;2.70;;;11.50;99.90;;;;;;4876695;29;20282;-96
2023/05/23 08:07:15;;;;;;;9.37;3.10;;;11.40;99.90;;;;;;4868960;29;20241;-95
2023/05/23 08:09:50;;;;;;;7.90;2.53;;;11.40;99.90;;;;;;4870208;29;20207;-96
2023/05/23 08:12:22;;;;;;;10.03;3.23;;;11.30;99.90;;;;;;4871244;29;20247;-96
2023/05/23 08:14:53;;;;;;;8.50;2.70;;;11.30;99.90;;;;;;4888365;29;20242;-96
2023/05/23 08:17:25;;;;;;;9.33;2.67;;;11.20;99.90;;;;;;4875061;29;20300;-96
2023/05/23 08:19:57;;;;;;;12.17;2.57;;;11.20;99.90;;;;;;4871423;29;20207;-96
2023/05/23 08:22:28;;;;;;;11.63;3.00;;;11.30;99.90;;;;;;4881787;29;20269;-96
2023/05/23 08:25:02;;;;;;;9.67;3.30;;;11.20;99.90;;;;;;4884247;29;20724;-96
2023/05/23 08:27:34;;;;;;;11.60;3.17;;;11.20;99.90;;;;;;4894155;29;20580;-96
2023/05/23 08:30:08;;;;;;;21.17;4.17;;;11.20;99.90;;;;;;4876755;29;20246;-96
2023/05/23 08:32:39;;;;;;;11.23;3.10;;;11.10;99.90;;;;;;4878815;29;20211;-96
2023/05/23 08:35:11;;;;;;;8.83;3.00;;;11.10;99.90;;;;;;4884637;29;20210;-96
2023/05/23 08:40:41;;;;;;;11.70;2.80;;;11.10;99.90;;;;;;4884454;29;20286;-96
2023/05/23 08:43:13;;;;;;;6.93;2.80;;;11.10;99.90;;;;;;4884018;29;20191;-96
2023/05/23 08:45:44;;;;;;;15.33;3.23;;;11.00;99.90;;;;;;4883979;29;20283;-96
2023/05/23 08:48:20;;;;;;;8.07;2.63;;;11.00;99.90;;;;;;4883752;29;20207;-96
2023/05/23 08:50:53;;;;;;;10.90;2.50;;;11.10;99.90;;;;;;4881371;29;20214;-96
2023/05/23 08:53:26;;;;;;;11.30;3.20;;;11.20;99.90;;;;;;4901871;29;20266;-96
2023/05/23 08:56:01;;;;;;;10.20;2.90;;;11.10;99.90;;;;;;4898838;29;20241;-96
2023/05/23 08:58:33;;;;;;;10.07;3.07;;;11.10;99.90;;;;;;4901735;29;20248;-96
2023/05/23 09:01:05;;;;;;;11.97;3.20;;;11.00;99.90;;;;;;4899864;29;20244;-96
2023/05/23 09:03:37;;;;;;;9.47;2.43;;;11.00;99.90;;;;;;4882200;29;20233;-96
2023/05/23 09:06:09;;;;;;;7.80;2.57;;;10.90;99.90;;;;;;4874424;29;20279;-96
2023/05/23 09:08:41;;;;;;;8.87;2.50;;;10.90;99.90;;;;;;4894653;29;20217;-96
2023/05/23 09:11:14;;;;;;;12.33;3.37;;;11.10;99.90;;;;;;4897998;29;20233;-96
2023/05/23 09:13:48;;;;;;;9.77;2.93;;;11.10;99.90;;;;;;4893087;29;20248;-96
2023/05/23 09:16:21;;;;;;;9.83;3.17;;;11.10;99.90;;;;;;4874222;29;20245;-96
2023/05/23 09:18:53;;;;;;;10.47;3.13;;;10.90;99.90;;;;;;4870153;29;20217;-96
2023/05/23 09:21:26;;;;;;;12.20;3.00;;;10.90;99.90;;;;;;4876060;29;20223;-96
2023/05/23 09:23:58;;;;;;;10.93;3.10;;;10.80;99.90;;;;;;4880065;29;20207;-96
2023/05/23 09:29:29;;;;;;;10.97;2.87;;;10.80;99.90;;;;;;4876334;29;20219;-96
2023/05/23 09:32:11;;;;;;;8.67;2.67;;;10.70;99.90;;;;;;4871639;29;20206;-96
2023/05/23 09:34:44;;;;;;;9.20;3.23;;;10.70;99.90;;;;;;4879054;29;20274;-96
2023/05/23 09:37:17;;;;;;;12.03;3.17;;;10.60;99.90;;;;;;4881641;29;20314;-96
2023/05/23 09:39:49;;;;;;;10.47;3.20;;;10.60;99.90;;;;;;4878112;29;20230;-96
2023/05/23 09:42:25;;;;;;;10.73;3.63;;;10.60;99.90;;;;;;4884459;29;20219;-96
2023/05/23 09:44:56;;;;;;;14.67;3.57;;;10.70;99.90;;;;;;4890511;29;20298;-96
2023/05/23 09:50:09;;;;;;;8.17;2.70;;;10.60;99.90;;;;;;4986106;23;20245;-96
2023/05/23 09:58:01;;;;;;;12.20;2.87;;;10.50;99.90;;;;;;5676247;23;20286;-95
2023/05/23 10:04:07;;;;;;;11.80;3.50;;;10.50;99.90;;;;;;4910982;29;20257;-96
2023/05/23 10:06:46;;;;;;;11.00;3.00;;;10.50;99.90;;;;;;4924293;29;20185;-96
2023/05/23 10:09:21;;;;;;;10.37;3.47;;;10.50;99.90;;;;;;4923373;29;20197;-95
2023/05/23 10:12:37;;;;;;;9.33;3.10;;;10.30;99.90;;;;;;4914333;29;20202;-96
2023/05/23 10:15:15;;;;;;;8.97;2.77;;;10.40;99.90;;;;;;4902520;29;20222;-96
2023/05/23 10:18:07;;;;;;;9.67;2.93;;;10.30;99.90;;;;;;4889066;29;20205;-96
2023/05/23 10:20:44;;;;;;;12.63;2.93;;;10.30;99.90;;;;;;4885298;29;20202;-96
2023/05/23 10:23:16;;;;;;;8.80;2.70;;;10.30;99.90;;;;;;4908395;29;20213;-96
2023/05/23 10:25:49;;;;;;;14.57;3.03;;;10.30;99.90;;;;;;4922614;29;20257;-96
2023/05/23 10:28:20;;;;;;;11.70;3.20;;;10.30;99.90;;;;;;4917464;29;20265;-94
2023/05/23 10:30:53;;;;;;;9.60;3.00;;;10.30;99.90;;;;;;4903512;29;20270;-96
2023/05/23 10:33:26;;;;;;;10.93;3.33;;;10.30;99.90;;;;;;4904866;29;20213;-96
2023/05/23 10:36:23;;;;;;;9.17;2.77;;;10.40;99.90;;;;;;4900743;29;20214;-96
2023/05/23 10:39:03;;;;;;;10.33;3.17;;;10.40;99.90;;;;;;4900228;29;20273;-95
2023/05/23 10:44:17;;;;;;;8.97;3.07;;;10.40;99.90;;;;;;4881948;29;20243;-96
2023/05/23 11:03:07;;;;;;;11.03;3.43;;;10.50;99.90;;;;;;4971063;23;20258;-96
2023/05/23 11:05:42;;;;;;;11.30;3.13;;;10.40;99.90;;;;;;4882780;29;20210;-96
2023/05/23 11:08:16;;;;;;;13.60;3.00;;;10.50;99.90;;;;;;5094930;23;20276;-96
2023/05/23 11:10:55;;;;;;;11.37;3.23;;;10.50;99.90;;;;;;4903550;29;20226;-96
2023/05/23 11:13:27;;;;;;;8.43;2.40;;;10.40;99.90;;;;;;4905963;29;20198;-96
2023/05/23 11:15:59;;;;;;;11.17;3.27;;;10.30;99.90;;;;;;4892899;29;20198;-96
2023/05/23 11:18:36;;;;;;;11.97;2.90;;;10.40;99.90;;;;;;4895332;29;20215;-95
2023/05/23 11:21:08;;;;;;;12.47;3.30;;;10.30;99.90;;;;;;4880463;29;20207;-96
2023/05/23 11:23:43;;;;;;;7.63;2.63;;;10.30;99.90;;;;;;4882211;29;20384;-96
2023/05/23 11:35:32;;;;;;;9.93;2.87;;;10.30;99.90;;;;;;4881043;29;20267;-96
2023/05/23 11:38:05;;;;;;;9.60;3.33;;;10.20;99.90;;;;;;4882394;29;20233;-96
2023/05/23 11:40:42;;;;;;;8.23;2.60;;;10.20;99.90;;;;;;4883721;29;20212;-96
2023/05/23 11:43:16;;;;;;;10.50;2.83;;;10.30;99.90;;;;;;4884067;29;20238;-96
2023/05/23 11:45:48;;;;;;;11.30;3.37;;;10.30;99.90;;;;;;4890771;29;20213;-96
2023/05/23 11:48:26;;;;;;;12.43;3.20;;;10.30;99.90;;;;;;4901916;29;20251;-96
2023/05/23 12:10:29;;;;;;;14.47;3.10;;;10.10;99.90;;;;;;4884276;29;20206;-96
2023/05/23 12:13:01;;;;;;;10.93;3.00;;;10.00;99.90;;;;;;5426881;23;20263;-96
2023/05/23 12:15:33;;;;;;;8.63;2.63;;;9.90;99.90;;;;;;4905368;29;20235;-96
2023/05/23 12:18:06;;;;;;;13.90;3.30;;;9.80;99.90;;;;;;4900707;29;20215;-96
2023/05/23 12:20:43;;;;;;;9.27;2.97;;;9.80;99.90;;;;;;4896211;29;20211;-95
2023/05/23 12:23:23;;;;;;;12.03;3.97;;;9.80;99.90;;;;;;4893624;29;20244;-96
2023/05/23 12:26:23;;;;;;;10.93;3.03;;;9.70;99.90;;;;;;4916307;29;20186;-96
2023/05/23 12:28:55;;;;;;;13.97;2.90;;;9.70;99.90;;;;;;4918339;29;20225;-96
2023/05/23 12:31:27;;;;;;;8.20;2.60;;;9.70;99.90;;;;;;4969235;23;20264;-93
2023/05/23 12:34:00;;;;;;;11.20;2.80;;;9.80;99.90;;;;;;4903802;29;20278;-96
2023/05/23 12:36:33;;;;;;;10.77;2.77;;;9.70;99.90;;;;;;4900494;29;20211;-95
2023/05/23 12:39:17;;;;;;;15.50;3.73;;;9.70;99.90;;;;;;4899660;29;20239;-96
2023/05/23 12:41:49;;;;;;;13.13;3.27;;;9.70;99.90;;;;;;4897611;29;20309;-96
2023/05/23 12:44:21;;;;;;;7.47;2.87;;;9.70;99.90;;;;;;4897022;29;20270;-96
2023/05/23 12:46:53;;;;;;;12.60;3.00;;;9.70;99.90;;;;;;4884829;29;20199;-96
2023/05/23 12:49:26;;;;;;;7.37;3.20;;;9.70;99.90;;;;;;4883184;29;20247;-96
2023/05/23 13:21:51;;;;;;;8.90;2.80;;;10.20;99.90;;;;;;4899830;23;20275;-96
2023/05/23 13:24:23;;;;;;;8.07;2.77;;;10.10;99.90;;;;;;4879690;29;20206;-96
2023/05/23 13:26:54;;;;;;;13.77;3.33;;;10.30;99.90;;;;;;4879185;29;20203;-96
2023/05/23 13:29:26;;;;;;;9.13;3.13;;;10.30;99.90;;;;;;4880821;29;20214;-96
2023/05/23 13:31:58;;;;;;;12.03;3.23;;;10.40;99.90;;;;;;4872272;29;20279;-96
2023/05/23 13:34:30;;;;;;;15.67;3.17;;;10.50;99.90;;;;;;4865114;29;20210;-96
2023/05/23 13:37:05;;;;;;;10.67;2.97;;;10.60;99.90;;;;;;4876870;29;20256;-96
2023/05/23 13:39:36;;;;;;;8.17;3.17;;;10.60;99.90;;;;;;4872877;29;20223;-96
2023/05/23 13:42:09;;;;;;;13.30;2.83;;;10.70;99.90;;;;;;4880715;29;20211;-96
2023/05/23 13:44:40;;;;;;;14.20;3.20;;;10.80;99.90;;;;;;4879277;29;20203;-96
2023/05/23 13:47:13;;;;;;;10.90;3.17;;;10.80;99.90;;;;;;4882483;29;20211;-96
2023/05/23 14:35:43;;;;;;;8.93;3.47;;;11.00;99.90;;;;;;4885878;29;20218;-96
2023/05/23 14:38:15;;;;;;;11.33;3.10;;;11.10;99.90;;;;;;4885862;29;20263;-96
2023/05/23 14:40:47;;;;;;;14.53;3.00;;;11.00;99.90;;;;;;4874331;29;20218;-95
2023/05/23 14:43:19;;;;;;;11.10;3.47;;;11.10;99.90;;;;;;4886851;29;20222;-96
2023/05/23 14:45:51;;;;;;;11.20;3.37;;;11.00;99.90;;;;;;4886241;29;20191;-96
2023/05/23 14:48:22;;;;;;;8.77;3.23;;;11.00;99.90;;;;;;4878610;29;20191;-96
2023/05/23 14:51:00;;;;;;;7.87;2.83;;;11.10;99.90;;;;;;4860265;29;20211;-96
2023/05/23 14:53:32;;;;;;;12.57;3.37;;;11.10;99.90;;;;;;4857376;29;20251;-96
2023/05/23 14:56:04;;;;;;;9.63;3.43;;;11.00;99.90;;;;;;4860603;29;20252;-96
2023/05/23 14:58:38;;;;;;;10.93;3.87;;;11.00;99.90;;;;;;4861078;29;20275;-96
2023/05/23 15:01:11;;;;;;;10.10;3.47;;;11.10;99.90;;;;;;4870655;29;20286;-96
2023/05/23 15:03:43;;;;;;;15.57;3.53;;;11.00;99.90;;;;;;4885420;29;20243;-96
2023/05/23 15:06:17;;;;;;;12.80;3.20;;;11.00;99.90;;;;;;4879667;29;20672;-96
2023/05/23 15:08:49;;;;;;;11.07;3.40;;;11.00;99.90;;;;;;4882626;29;20238;-96
2023/05/23 15:11:21;;;;;;;11.23;3.27;;;11.10;99.90;;;;;;4880420;29;20238;-96
2023/05/23 15:13:54;;;;;;;9.80;3.07;;;11.10;99.90;;;;;;4865892;29;20263;-96
2023/05/23 15:16:25;;;;;;;15.10;3.20;;;11.20;99.90;;;;;;4882460;29;20249;-96
2023/05/23 15:18:57;;;;;;;11.97;3.00;;;11.50;99.90;;;;;;4868941;29;20215;-95
2023/05/23 15:21:31;;;;;;;10.60;2.90;;;11.40;99.90;;;;;;4878630;29;20223;-96
2023/05/23 15:24:03;;;;;;;13.40;3.47;;;11.50;99.90;;;;;;4856633;29;20243;-94
2023/05/23 15:26:34;;;;;;;13.17;3.37;;;11.50;99.90;;;;;;4858463;29;20701;-96
2023/05/23 15:29:05;;;;;;;13.03;3.40;;;11.40;99.90;;;;;;4867347;29;20214;-96
2023/05/23 15:31:36;;;;;;;11.83;3.37;;;11.60;99.90;;;;;;4879902;29;20620;-96
2023/05/23 15:34:09;;;;;;;10.63;3.03;;;11.60;99.90;;;;;;4867375;29;20217;-96
2023/05/23 15:36:42;;;;;;;6.63;2.67;;;11.80;99.90;;;;;;4856574;29;20214;-95
2023/05/23 15:39:15;;;;;;;11.00;3.20;;;11.70;99.90;;;;;;4849285;29;20689;-95
2023/05/23 15:41:46;;;;;;;7.40;2.93;;;11.80;99.90;;;;;;4852049;29;20216;-96
2023/05/23 15:44:19;;;;;;;10.33;3.27;;;12.00;99.90;;;;;;4853253;29;20721;-96
2023/05/23 15:46:52;;;;;;;9.47;2.83;;;12.10;99.90;;;;;;4849019;29;20298;-96
2023/05/23 15:49:24;;;;;;;8.23;2.50;;;12.30;99.90;;;;;;4850022;29;20215;-96
2023/05/23 15:51:58;;;;;;;13.47;2.87;;;12.20;99.90;;;;;;4865989;29;20559;-96
2023/05/23 15:54:29;;;;;;;10.27;3.30;;;12.20;99.90;;;;;;4849424;29;20680;-96
2023/05/23 15:56:59;;;;;;;10.90;3.47;;;12.20;99.90;;;;;;4862070;29;20605;-96
2023/05/23 15:59:31;;;;;;;11.50;3.20;;;12.40;99.90;;;;;;4854362;29;20685;-95
2023/05/23 16:02:04;;;;;;;12.00;3.07;;;12.30;99.90;;;;;;4872497;29;20214;-95
2023/05/23 16:04:37;;;;;;;9.87;3.20;;;12.50;99.90;;;;;;4861299;29;20250;-96
2023/05/23 16:07:10;;;;;;;11.43;2.90;;;12.50;99.90;;;;;;4853244;29;20215;-95
2023/05/23 16:09:42;;;;;;;10.87;3.00;;;12.80;99.90;;;;;;4863307;29;20226;-96
2023/05/23 16:12:13;;;;;;;9.37;2.73;;;12.80;99.90;;;;;;4866038;29;20653;-95
2023/05/23 16:14:45;;;;;;;10.33;3.10;;;12.70;99.90;;;;;;4860478;29;20222;-95
2023/05/23 16:17:16;;;;;;;9.27;2.80;;;12.70;99.90;;;;;;4860756;29;20224;-96
2023/05/23 16:19:48;;;;;;;12.07;2.90;;;12.70;99.90;;;;;;4850422;29;20224;-96
2023/05/23 16:22:21;;;;;;;8.20;2.60;;;12.90;99.90;;;;;;4858378;29;20283;-96
2023/05/23 16:24:52;;;;;;;7.80;2.53;;;12.90;99.90;;;;;;4858594;29;20291;-95
2023/05/23 16:27:25;;;;;;;8.50;2.53;;;12.90;99.90;;;;;;4880286;29;20199;-96
2023/05/23 16:29:56;;;;;;;10.80;3.30;;;13.10;99.90;;;;;;4869707;29;20258;-96
2023/05/23 16:32:28;;;;;;;9.00;3.20;;;13.40;99.90;;;;;;4868501;29;20199;-96
2023/05/23 16:37:36;;;;;;;10.57;3.17;;;13.80;99.90;;;;;;4924833;23;20392;-96
2023/05/23 16:40:09;;;;;;;11.30;3.20;;;13.70;99.90;;;;;;4933227;23;20226;-96
2023/05/23 16:42:40;;;;;;;7.33;2.83;;;13.80;99.90;;;;;;4908515;29;20216;-96
2023/05/23 16:45:14;;;;;;;10.53;3.10;;;13.90;99.90;;;;;;4911931;29;20223;-96
2023/05/23 16:47:46;;;;;;;9.43;3.03;;;13.80;99.90;;;;;;4915658;29;20237;-96
2023/05/23 16:50:17;;;;;;;11.20;2.77;;;14.00;99.90;;;;;;4911156;29;20192;-96
2023/05/23 16:52:51;;;;;;;7.83;2.60;;;13.90;99.90;;;;;;4912809;29;20202;-96
2023/05/23 16:55:23;;;;;;;8.50;3.60;;;13.90;99.90;;;;;;4914605;29;20253;-95
2023/05/23 16:57:53;;;;;;;9.07;2.67;;;13.90;99.90;;;;;;4904320;29;20218;-94
2023/05/23 17:00:25;;;;;;;10.33;3.57;;;14.10;99.90;;;;;;4912246;29;20214;-96
2023/05/23 17:02:56;;;;;;;6.17;2.60;;;14.10;99.90;;;;;;4914619;29;20266;-95
2023/05/23 17:05:27;;;;;;;8.17;2.53;;;14.20;99.90;;;;;;4908920;29;20241;-96
2023/05/23 17:08:00;;;;;;;9.90;3.03;;;14.10;99.90;;;;;;4912948;29;20288;-96
2023/05/23 17:10:32;;;;;;;12.83;3.87;;;14.20;99.90;;;;;;4892193;29;20206;-96
2023/05/23 17:13:03;;;;;;;12.30;3.33;;;14.40;99.90;;;;;;4909928;29;20271;-96
2023/05/23 17:15:34;;;;;;;13.57;3.33;;;14.60;99.90;;;;;;4908336;29;20219;-96
2023/05/23 17:18:05;;;;;;;8.23;3.37;;;14.80;99.90;;;;;;4901129;29;20209;-96